Flight Track Log - Related Links

Times and Time Zones

All times are in EDT time to prevent confusion due to time zone crossing. See the TRS423 flight status page for this flight to view local times or setup timezone preferences in your user account.

Time Position Orientation Groundspeed Altitude Reporting Facility
EDT Latitude Longitude Course Direction KTS MPH feet Rate Location/Type
Wed 02:36:02 PM 28.4167 -81.3000 156° South 169 194 500  Level Orlando TRACON
Wed 02:36:44 PM 28.3833 -81.2833 156° South 195 224 1,800 1,588 Climbing Orlando TRACON
Wed 02:37:44 PM 28.3333 -81.2333 139° Southeast 263 303 3,200 2,000 Climbing Orlando TRACON
Wed 02:38:44 PM 28.3667 -81.1667 60° Northeast 278 320 5,800 2,408 Climbing Orlando TRACON
Wed 02:40:16 PM 28.4786 -81.1850 352° North 300 345 9,300 1,947 Climbing Jacksonville Center
Wed 02:41:15 PM 28.5606 -81.2097 345° North 295 339 10,700 1,361 Climbing Jacksonville Center
Wed 02:42:15 PM 28.6547 -81.2436 342° North 317 365 12,000 1,438 Climbing Jacksonville Center
Wed 02:43:16 PM 28.7533 -81.2775 343° North 348 400 13,600 1,700 Climbing Jacksonville Center
Wed 02:44:15 PM 28.8558 -81.3092 345° North 366 421 15,400 1,800 Climbing Jacksonville Center
Wed 02:45:16 PM 28.9608 -81.3431 344° North 380 437 17,200 1,537 Climbing Jacksonville Center
Wed 02:46:16 PM 29.0656 -81.3792 343° North 385 443 18,500 1,664 Climbing Jacksonville Center
Wed 02:47:15 PM 29.1806 -81.3989 351° North 390 449 20,500 1,866 Climbing Jacksonville Center
Wed 02:48:15 PM 29.2933 -81.4117 354° North 406 467 22,200 1,736 Climbing Jacksonville Center
Wed 02:49:16 PM 29.4106 -81.4217 356° North 411 473 24,000 1,650 Climbing Jacksonville Center
Wed 02:50:15 PM 29.5294 -81.4342 355° North 417 480 25,500 1,400 Climbing Jacksonville Center
Wed 02:51:16 PM 29.6486 -81.4444 356° North 422 486 26,800 1,240 Climbing Jacksonville Center
Wed 02:52:16 PM 29.7700 -81.4569 355° North 428 493 28,000 1,462 Climbing Jacksonville Center
Wed 02:53:15 PM 29.8911 -81.4672 356° North 433 498 29,700 1,650 Climbing Jacksonville Center
Wed 02:54:16 PM 30.0081 -81.4797 355° North 427 491 31,300 1,339 Climbing Jacksonville Center
Wed 02:55:16 PM 30.1272 -81.4900 356° North 422 486 32,400 850 Climbing Jacksonville Center
Wed 02:56:16 PM 30.2444 -81.5028 355° North 422 486 33,000 300 Climbing Jacksonville Center
Wed 02:57:16 PM 30.3614 -81.5108 357° North 422 486 33,000  Level Jacksonville Center
Wed 02:58:16 PM 30.4803 -81.4994 North 422 486 33,000  Level Jacksonville Center
Wed 02:59:16 PM 30.5992 -81.4903 North 422 486 33,000  Level Jacksonville Center
Wed 03:00:16 PM 30.7075 -81.4817 North 427 491 33,000  Level Jacksonville Center
Wed 03:01:16 PM 30.8286 -81.4725 North 427 491 33,000  Level Jacksonville Center
Wed 03:02:15 PM 30.9475 -81.4633 North 427 491 33,000  Level Jacksonville Center
Wed 03:03:15 PM 31.0686 -81.4544 North 427 491 33,000  Level Jacksonville Center
Wed 03:04:16 PM 31.1894 -81.4428 North 422 486 33,000  Level Jacksonville Center
Wed 03:05:16 PM 31.3103 -81.4239 North 422 486 33,000  Level Jacksonville Center
Wed 03:06:16 PM 31.4267 -81.3831 17° North 427 491 33,000  Level Jacksonville Center
Wed 03:07:16 PM 31.5469 -81.3056 29° Northeast 444 511 33,000  Level Jacksonville Center
Wed 03:08:16 PM 31.6544 -81.2281 32° Northeast 445 512 33,000  Level Jacksonville Center
Wed 03:09:16 PM 31.7539 -81.1578 31° Northeast 450 518 33,000  Level Jacksonville Center
Wed 03:10:16 PM 31.8717 -81.0750 31° Northeast 445 512 33,000  Level Jacksonville Center
Wed 03:11:16 PM 31.9686 -81.0044 32° Northeast 451 519 33,000  Level Jacksonville Center
Wed 03:12:15 PM 32.0886 -80.9211 30° Northeast 451 519 33,000  Level Jacksonville Center
Wed 03:13:16 PM 32.1958 -80.8450 31° Northeast 444 511 33,000  Level Jacksonville Center
Wed 03:14:15 PM 32.2928 -80.7742 32° Northeast 443 510 33,000  Level Jacksonville Center
Wed 03:15:15 PM 32.3981 -80.6953 32° Northeast 443 510 33,000  Level Jacksonville Center
Wed 03:16:16 PM 32.5053 -80.6164 32° Northeast 443 510 33,000  Level Jacksonville Center
Wed 03:17:16 PM 32.6014 -80.5203 40° Northeast 448 516 33,000  Level Jacksonville Center
Wed 03:18:15 PM 32.6975 -80.4167 42° Northeast 448 516 33,000  Level Jacksonville Center
Wed 03:19:16 PM 32.7936 -80.3128 42° Northeast 454 522 33,000  Level Jacksonville Center
Wed 03:20:15 PM 32.8875 -80.2086 43° Northeast 459 528 33,000  Level Jacksonville Center
Wed 03:21:15 PM 32.9978 -80.0939 41° Northeast 478 550 33,000  Level Jacksonville Center
Wed 03:22:16 PM 33.0833 -79.9969 44° Northeast 473 544 33,000  Level Jacksonville Center
Wed 03:23:16 PM 33.1892 -79.8867 41° Northeast 468 539 33,000  Level Jacksonville Center
Wed 03:24:16 PM 33.2867 -79.7792 43° Northeast 463 533 33,000  Level Jacksonville Center
Wed 03:25:16 PM 33.3822 -79.6764 42° Northeast 463 533 33,000  Level Jacksonville Center
Wed 03:26:16 PM 33.4797 -79.5706 42° Northeast 463 533 33,000  Level Jacksonville Center
Wed 03:27:16 PM 33.5750 -79.4650 43° Northeast 463 533 33,000  Level Jacksonville Center
Wed 03:28:16 PM 33.6700 -79.3589 43° Northeast 463 533 33,000  Level Jacksonville Center
Wed 03:29:15 PM 33.7550 -79.2631 43° Northeast 463 533 33,000  Level Jacksonville Center
Wed 03:30:59 PM 33.9250 -79.0756 42° Northeast 462 532 33,000  Level Washington Center
Wed 03:31:59 PM 34.0219 -78.9667 43° Northeast 462 532 33,000  Level Washington Center
Wed 03:32:57 PM 34.1211 -78.8581 42° Northeast 462 532 33,000  Level Washington Center
Wed 03:33:57 PM 34.2219 -78.7489 42° Northeast 467 537 33,000  Level Washington Center
Wed 03:34:58 PM 34.3186 -78.6419 42° Northeast 467 537 33,000  Level Washington Center
Wed 03:35:58 PM 34.4214 -78.5350 41° Northeast 473 544 33,000  Level Washington Center
Wed 03:36:59 PM 34.5028 -78.4522 40° Northeast 478 550 33,000  Level Washington Center
Wed 03:37:59 PM 34.6117 -78.3425 40° Northeast 473 544 33,000  Level Washington Center
Wed 03:38:59 PM 34.7142 -78.2400 39° Northeast 468 539 33,000  Level Washington Center
Wed 03:39:57 PM 34.8231 -78.1244 41° Northeast 468 539 33,000  Level Washington Center
Wed 03:40:58 PM 34.9028 -78.0006 52° Northeast 460 529 33,000  Level Washington Center
Wed 03:41:59 PM 34.9247 -77.8414 80° East 450 518 33,000  Level Washington Center
Wed 03:42:59 PM 34.9692 -77.7008 69° East 450 518 33,000  Level Washington Center
Wed 03:43:58 PM 35.0728 -77.6147 34° Northeast 432 497 33,000  Level Washington Center
Wed 03:44:58 PM 35.1847 -77.5386 29° Northeast 431 496 33,000  Level Washington Center
Wed 03:45:59 PM 35.3006 -77.4600 29° Northeast 452 520 33,000  Level Washington Center
Wed 03:46:57 PM 35.4125 -77.3811 30° Northeast 462 532 33,000  Level Washington Center
Wed 03:47:58 PM 35.5261 -77.3044 29° Northeast 462 532 33,000  Level Washington Center
Wed 03:48:59 PM 35.6400 -77.2253 29° Northeast 462 532 33,000  Level Washington Center
Wed 03:49:59 PM 35.7539 -77.1431 30° Northeast 462 532 33,000  Level Washington Center
Wed 03:50:59 PM 35.8528 -77.0706 31° Northeast 461 531 33,000 -51 Level Washington Center
Wed 03:51:57 PM 35.9683 -76.9933 28° Northeast 461 531 32,900 -655 Descending Washington Center
Wed 03:52:58 PM 36.0800 -76.9106 31° Northeast 466 536 31,700 -1,082 Descending Washington Center
Wed 03:53:59 PM 36.1956 -76.8300 29° Northeast 466 536 30,700 -1,059 Descending Washington Center
Wed 03:54:57 PM 36.3111 -76.7467 30° Northeast 466 536 29,600 -915 Descending Washington Center
Wed 03:55:57 PM 36.4267 -76.6658 29° Northeast 466 536 28,900 -298 Descending Washington Center
Wed 03:56:58 PM 36.5358 -76.5872 30° Northeast 461 531 29,000 50 Climbing Washington Center
Wed 03:57:58 PM 36.6469 -76.5083 30° Northeast 461 531 29,000  Level Washington Center
Wed 03:58:59 PM 36.7667 -76.4189 31° Northeast 461 531 29,000  Level Washington Center
Wed 03:59:59 PM 36.8756 -76.3372 31° Northeast 456 525 29,000  Level Washington Center
Wed 04:00:57 PM 36.9761 -76.2653 30° Northeast 456 525 29,000  Level Washington Center
Wed 04:01:58 PM 37.0872 -76.1856 30° Northeast 451 519 29,000  Level Washington Center
Wed 04:02:59 PM 37.2106 -76.1003 29° Northeast 451 519 29,000 -397 Level Washington Center
Wed 04:03:59 PM 37.3214 -76.0203 30° Northeast 456 525 28,200 -1,041 Descending Washington Center
Wed 04:05:00 PM 37.4281 -75.9397 31° Northeast 451 519 26,900 -1,322 Descending Washington Center
Wed 04:05:57 PM 37.5306 -75.8617 31° Northeast 440 506 25,600 -966 Descending Washington Center
Wed 04:06:58 PM 37.6369 -75.7833 30° Northeast 440 506 25,000 -295 Descending Washington Center
Wed 04:07:59 PM 37.7392 -75.7100 30° Northeast 435 501 25,000  Level Washington Center
Wed 04:08:57 PM 37.8436 -75.6286 32° Northeast 430 495 25,000 -102 Level Washington Center
Wed 04:09:57 PM 37.9458 -75.5497 31° Northeast 430 495 24,800 -446 Descending Washington Center
Wed 04:10:58 PM 38.0522 -75.4758 29° Northeast 425 489 24,100 -738 Descending Washington Center
Wed 04:11:59 PM 38.1564 -75.4042 28° Northeast 425 489 23,300 -807 Descending Washington Center
Wed 04:12:57 PM 38.2625 -75.3406 25° Northeast 420 483 22,500 -756 Descending Washington Center
Wed 04:13:58 PM 38.3644 -75.2739 27° Northeast 410 472 21,800 -1,328 Descending Washington Center
Wed 04:14:59 PM 38.4664 -75.2097 26° Northeast 405 466 19,800 -2,350 Descending Washington Center
Wed 04:15:58 PM 38.5642 -75.1431 28° Northeast 405 466 17,100 -2,331 Descending Washington Center
Wed 04:17:00 PM 38.6600 -75.0839 26° Northeast 393 452 15,100 -1,109 Descending Washington Center
Wed 04:17:57 PM 38.7556 -75.0192 28° Northeast 382 440 14,900  Descending Washington Center
Wed 04:18:57 PM 38.8492 -74.9600 26° Northeast 375 432 15,100 98 Climbing Washington Center
Wed 04:19:59 PM 38.9425 -74.9031 25° Northeast 375 432 15,100 -295 Level Washington Center
Wed 04:20:59 PM 39.0383 -74.8967 North 353 406 14,500 -1,295 Descending Washington Center
Wed 04:22:55 PM 39.2167 -74.9167 355° North 333 383 11,300 -1,376 Descending Philadelphia TRACON
Wed 04:23:49 PM 39.3000 -74.9333 351° North 262 302 10,600 -1,158 Descending Philadelphia TRACON
Wed 04:24:49 PM 39.3667 -74.9500 349° North 251 289 9,100 -850 Descending Philadelphia TRACON
Wed 04:25:49 PM 39.4333 -74.9500 360° North 257 296 8,900 -750 Descending Philadelphia TRACON
Wed 04:26:49 PM 39.5000 -74.9667 349° North 258 297 7,600 -1,238 Descending Philadelphia TRACON
Wed 04:27:55 PM 39.5833 -75.0000 343° North 254 292 6,300 -843 Descending Philadelphia TRACON
Wed 04:28:50 PM 39.6333 -75.0500 322° Northwest 257 296 5,900 -209 Descending Philadelphia TRACON
Wed 04:29:50 PM 39.7000 -75.0667 349° North 278 320 5,900  Level Philadelphia TRACON
Wed 04:30:50 PM 39.7667 -75.0833 349° North 201 231 5,900  Level Philadelphia TRACON
Wed 04:31:55 PM 39.8167 -75.0500 27° Northeast 241 277 5,900 -300 Level Philadelphia TRACON
Wed 04:32:50 PM 39.8333 -74.9667 75° East 243 280 5,300 -686 Descending Philadelphia TRACON
Wed 04:34:00 PM 39.8571 -75.1334 281° West  Level Estimated
Wed 04:34:50 PM 39.8667 -74.8167 281° West 234 269 3,900  Level Philadelphia TRACON
Wed 04:35:50 PM 39.9167 -74.8167 360° North 184 212 3,900  Level Philadelphia TRACON
Wed 04:36:50 PM 39.9500 -74.8667 311° West 175 201 3,900  Level Philadelphia TRACON
Wed 04:37:50 PM 39.9333 -74.9333 252° West 157 181 3,900 -100 Level Philadelphia TRACON
Wed 04:38:50 PM 39.9167 -74.9833 247° West 163 188 3,700 -600 Descending Philadelphia TRACON
Wed 04:39:50 PM 39.9167 -75.0500 270° West 161 185 2,700 -893 Descending Philadelphia TRACON
Wed 04:40:51 PM 39.9000 -75.1000 247° West 159 183 1,900 -750 Descending Philadelphia TRACON
Wed 04:41:50 PM 39.8833 -75.1500 247° West 124 143 1,200 -720 Descending Philadelphia TRACON
Wed 04:42:56 PM 39.8833 -75.2000 270° West 133 153 400 -727 Descending Philadelphia TRACON

Login

Don't have an account? Register now (free) for customized features, flight alerts, and more!